createdAt,value
2023-05-03T00:00:40.107Z,86.86
2023-05-03T00:03:12.330Z,86.94
2023-05-03T00:05:38.854Z,87.26
2023-05-03T00:08:05.333Z,87.00
2023-05-03T00:10:31.636Z,86.91
2023-05-03T00:12:58.071Z,86.85
2023-05-03T00:15:35.913Z,87.07
2023-05-03T00:18:04.974Z,86.96
2023-05-03T00:20:31.354Z,87.05
2023-05-03T00:22:58.160Z,87.04
2023-05-03T00:25:27.244Z,86.88
2023-05-03T00:27:53.759Z,86.78
2023-05-03T00:30:20.244Z,86.88
2023-05-03T00:32:49.620Z,86.88
2023-05-03T00:35:16.038Z,86.99
2023-05-03T00:37:49.876Z,87.13
2023-05-03T00:40:16.596Z,87.17
2023-05-03T00:42:43.200Z,87.19
2023-05-03T00:45:09.611Z,87.08
2023-05-03T00:47:36.475Z,87.05
2023-05-03T00:50:03.123Z,87.22
2023-05-03T00:52:30.325Z,87.33
2023-05-03T00:54:57.227Z,87.43
2023-05-03T00:57:24.840Z,87.57
2023-05-03T00:59:52.259Z,87.64
2023-05-03T01:02:18.769Z,87.70
2023-05-03T01:04:45.225Z,87.72
2023-05-03T01:07:21.892Z,87.81
2023-05-03T01:10:02.963Z,87.55
2023-05-03T01:12:48.891Z,87.81
2023-05-03T01:15:20.428Z,87.73
2023-05-03T01:18:02.068Z,87.85
2023-05-03T01:20:29.597Z,87.80
2023-05-03T01:23:04.643Z,87.66
2023-05-03T01:25:31.012Z,87.85
2023-05-03T01:27:57.560Z,88.15
2023-05-03T01:30:26.655Z,88.02
2023-05-03T01:32:56.334Z,88.10
2023-05-03T01:35:28.822Z,88.09
2023-05-03T01:37:56.776Z,87.94
2023-05-03T01:40:24.571Z,88.02
2023-05-03T01:42:51.543Z,88.12
2023-05-03T01:45:17.950Z,88.31
2023-05-03T01:47:44.256Z,88.38
2023-05-03T01:50:10.806Z,88.38
2023-05-03T01:52:37.488Z,88.87
2023-05-03T01:55:03.938Z,88.90
2023-05-03T01:57:30.315Z,89.20
2023-05-03T01:59:56.772Z,89.56
2023-05-03T02:02:23.190Z,89.82
2023-05-03T02:04:49.626Z,89.89
2023-05-03T02:07:16.125Z,89.98
2023-05-03T02:09:43.052Z,90.24
2023-05-03T02:12:09.866Z,90.12
2023-05-03T02:14:36.369Z,90.11
2023-05-03T02:17:02.734Z,90.18
2023-05-03T02:19:29.052Z,89.94
2023-05-03T02:21:55.969Z,90.17
2023-05-03T02:24:23.387Z,89.90
2023-05-03T02:26:49.923Z,89.63
2023-05-03T02:29:16.295Z,89.76
2023-05-03T02:31:45.929Z,89.62
2023-05-03T02:34:12.231Z,90.03
2023-05-03T02:36:38.601Z,90.00
2023-05-03T02:39:04.928Z,89.83
2023-05-03T02:41:32.879Z,89.74
2023-05-03T02:43:59.318Z,89.82
2023-05-03T02:46:26.008Z,90.04
2023-05-03T02:48:52.482Z,89.90
2023-05-03T02:51:18.874Z,89.68
2023-05-03T02:53:45.277Z,89.93
2023-05-03T02:56:11.697Z,89.92
2023-05-03T02:58:38.180Z,90.11
2023-05-03T03:01:05.013Z,90.01
2023-05-03T03:03:31.465Z,90.18
2023-05-03T03:05:57.941Z,90.09
2023-05-03T03:08:24.768Z,90.36
2023-05-03T03:10:57.255Z,90.45
2023-05-03T03:13:23.586Z,90.58
2023-05-03T03:15:49.893Z,90.59
2023-05-03T03:18:18.996Z,90.71
2023-05-03T03:20:46.289Z,90.69
2023-05-03T03:23:15.154Z,90.74
2023-05-03T03:25:43.883Z,90.92
2023-05-03T03:28:10.361Z,90.97
2023-05-03T03:30:37.007Z,91.03
2023-05-03T03:33:17.137Z,91.10
2023-05-03T03:35:44.062Z,91.23
2023-05-03T03:38:10.746Z,91.20
2023-05-03T03:40:38.237Z,91.35
2023-05-03T03:43:05.284Z,91.82
2023-05-03T03:45:31.688Z,91.59
2023-05-03T03:47:58.909Z,92.29
2023-05-03T03:50:26.495Z,92.25
2023-05-03T03:52:52.810Z,92.66
2023-05-03T03:55:22.440Z,92.77
2023-05-03T03:57:49.185Z,93.30
2023-05-03T04:00:16.003Z,93.78
2023-05-03T04:02:48.419Z,94.16
2023-05-03T04:05:17.429Z,94.54
2023-05-03T04:07:44.575Z,94.44
2023-05-03T04:10:11.386Z,94.81
2023-05-03T04:12:39.200Z,95.12
2023-05-03T04:15:06.151Z,95.22
2023-05-03T04:17:33.403Z,95.21
2023-05-03T04:20:01.339Z,95.69
2023-05-03T04:22:29.258Z,95.66
2023-05-03T04:24:55.580Z,95.74
2023-05-03T04:27:22.072Z,95.94
2023-05-03T04:29:58.771Z,95.93
2023-05-03T04:32:25.632Z,96.07
2023-05-03T04:34:54.304Z,96.02
2023-05-03T04:37:21.929Z,96.29
2023-05-03T04:39:49.209Z,96.69
2023-05-03T04:42:18.424Z,96.32
2023-05-03T04:44:45.346Z,96.79
2023-05-03T04:47:20.077Z,96.51
2023-05-03T04:49:46.471Z,96.68
2023-05-03T04:52:13.199Z,96.61
2023-05-03T04:54:49.798Z,96.67
2023-05-03T04:57:16.422Z,96.85
2023-05-03T04:59:43.133Z,96.83
2023-05-03T05:02:10.439Z,96.74
2023-05-03T05:04:42.512Z,96.86
2023-05-03T05:07:29.258Z,97.03
2023-05-03T05:09:58.517Z,96.86
2023-05-03T05:12:25.843Z,96.58
2023-05-03T05:15:01.431Z,96.72
2023-05-03T05:17:27.964Z,96.67
2023-05-03T05:19:54.639Z,96.53
2023-05-03T05:22:21.230Z,96.44
2023-05-03T05:24:52.581Z,96.22
2023-05-03T05:27:19.412Z,96.11
2023-05-03T05:29:45.892Z,96.13
2023-05-03T05:32:12.222Z,96.00
2023-05-03T05:34:45.165Z,95.96
2023-05-03T05:37:16.053Z,95.81
2023-05-03T05:39:42.959Z,95.77
2023-05-03T05:42:10.262Z,95.44
2023-05-03T05:44:37.383Z,95.50
2023-05-03T05:47:04.399Z,95.26
2023-05-03T05:49:32.723Z,95.55
2023-05-03T05:51:59.259Z,95.60
2023-05-03T05:54:27.071Z,95.46
2023-05-03T05:56:55.134Z,95.40
2023-05-03T05:59:21.530Z,95.25
2023-05-03T06:01:47.928Z,95.27
2023-05-03T06:04:16.999Z,95.16
2023-05-03T06:06:43.952Z,95.11
2023-05-03T06:09:23.315Z,94.67
2023-05-03T06:11:53.130Z,94.31
2023-05-03T06:14:19.607Z,94.11
2023-05-03T06:16:47.118Z,94.02
2023-05-03T06:19:13.615Z,93.83
2023-05-03T06:21:40.082Z,93.89
2023-05-03T06:24:09.007Z,93.70
2023-05-03T06:26:35.439Z,93.38
2023-05-03T06:29:02.556Z,92.89
2023-05-03T06:31:29.412Z,92.07
2023-05-03T06:33:58.776Z,91.46
2023-05-03T06:36:25.805Z,91.09
2023-05-03T06:38:52.204Z,90.55
2023-05-03T06:41:18.753Z,89.93
2023-05-03T06:43:45.132Z,89.69
2023-05-03T06:46:14.235Z,89.43
2023-05-03T06:48:40.915Z,89.57
2023-05-03T06:51:07.500Z,89.09
2023-05-03T06:53:37.419Z,89.20
2023-05-03T06:56:03.966Z,88.57
2023-05-03T06:58:30.541Z,88.33
2023-05-03T07:00:56.861Z,88.27
2023-05-03T07:03:23.528Z,88.18
2023-05-03T07:05:50.375Z,88.13
2023-05-03T07:08:16.792Z,88.22
2023-05-03T07:10:43.206Z,88.17
2023-05-03T07:13:09.820Z,87.33
2023-05-03T07:15:36.299Z,87.37
2023-05-03T07:18:02.844Z,87.43
2023-05-03T07:20:29.421Z,86.52
2023-05-03T07:22:55.912Z,86.20
2023-05-03T07:25:22.677Z,86.44
2023-05-03T07:27:49.114Z,86.39
2023-05-03T07:30:15.741Z,85.72
2023-05-03T07:32:42.290Z,84.85
2023-05-03T07:35:09.198Z,83.99
2023-05-03T07:37:35.612Z,83.34
2023-05-03T07:40:03.274Z,82.78
2023-05-03T07:42:29.845Z,82.34
2023-05-03T07:44:56.254Z,82.17
2023-05-03T07:47:26.100Z,81.32
2023-05-03T07:50:06.104Z,80.02
2023-05-03T07:52:36.237Z,80.03
2023-05-03T07:55:02.782Z,79.49
2023-05-03T07:57:29.167Z,79.06
2023-05-03T07:59:55.789Z,78.99
2023-05-03T08:02:22.453Z,78.15
2023-05-03T08:04:58.598Z,76.61
2023-05-03T08:07:25.271Z,76.37
2023-05-03T08:09:53.932Z,76.07
2023-05-03T08:12:20.467Z,75.16
2023-05-03T08:14:46.901Z,75.40
2023-05-03T08:17:15.720Z,75.02
2023-05-03T08:19:42.273Z,74.83
2023-05-03T08:22:08.977Z,74.24
2023-05-03T08:24:35.421Z,73.20
2023-05-03T08:27:02.403Z,72.61
2023-05-03T08:29:37.300Z,71.98
2023-05-03T08:32:04.335Z,71.25
2023-05-03T08:34:31.218Z,70.56
2023-05-03T08:37:00.706Z,69.31
2023-05-03T08:39:27.292Z,69.32
2023-05-03T08:41:56.186Z,69.57
2023-05-03T08:44:23.315Z,70.19
2023-05-03T08:46:49.891Z,69.26
2023-05-03T08:49:16.871Z,68.63
2023-05-03T08:51:55.022Z,69.13
2023-05-03T08:54:21.557Z,69.09
2023-05-03T08:56:48.862Z,69.43
2023-05-03T08:59:15.446Z,68.87
2023-05-03T09:01:42.126Z,68.94
2023-05-03T09:04:09.423Z,69.55
2023-05-03T09:06:36.168Z,70.00
2023-05-03T09:09:06.086Z,69.99
2023-05-03T09:11:33.441Z,69.69
2023-05-03T09:14:16.645Z,69.44
2023-05-03T09:16:44.721Z,68.19
2023-05-03T09:19:12.109Z,67.60
2023-05-03T09:21:39.766Z,68.12
2023-05-03T09:24:13.233Z,68.68
2023-05-03T09:26:39.986Z,69.15
2023-05-03T09:29:07.011Z,68.87
2023-05-03T09:31:33.976Z,69.55
2023-05-03T09:34:00.649Z,69.91
2023-05-03T09:36:47.246Z,70.04
2023-05-03T09:39:15.726Z,69.91
2023-05-03T09:41:42.210Z,69.79
2023-05-03T09:44:08.705Z,69.73
2023-05-03T09:46:55.379Z,69.48
2023-05-03T09:49:21.909Z,69.14
2023-05-03T09:51:48.442Z,68.50
2023-05-03T09:54:14.969Z,68.48
2023-05-03T09:56:42.370Z,68.40
2023-05-03T09:59:09.154Z,67.83
2023-05-03T10:01:35.792Z,67.61
2023-05-03T10:04:03.287Z,67.49
2023-05-03T10:06:37.601Z,66.94
2023-05-03T10:09:15.262Z,66.17
2023-05-03T10:11:48.075Z,66.24
2023-05-03T10:14:14.604Z,65.46
2023-05-03T10:16:43.811Z,65.76
2023-05-03T10:19:22.845Z,65.11
2023-05-03T10:22:08.875Z,64.42
2023-05-03T10:24:36.216Z,64.42
2023-05-03T10:27:06.110Z,64.60
2023-05-03T10:29:36.046Z,65.01
2023-05-03T10:32:25.793Z,64.83
2023-05-03T10:34:56.107Z,64.94
2023-05-03T10:37:25.313Z,64.45
2023-05-03T10:40:30.352Z,63.64
2023-05-03T10:43:01.939Z,63.15
2023-05-03T10:45:28.972Z,63.49
2023-05-03T10:48:11.636Z,64.04
2023-05-03T10:50:38.760Z,64.30
2023-05-03T10:53:05.668Z,64.24
2023-05-03T10:55:32.613Z,63.23
2023-05-03T10:58:00.161Z,62.92
2023-05-03T11:00:44.650Z,62.71
2023-05-03T11:03:29.322Z,62.80
2023-05-03T11:05:56.317Z,62.38
2023-05-03T11:08:23.665Z,61.75
2023-05-03T11:10:55.650Z,60.04
2023-05-03T11:13:22.036Z,60.93
2023-05-03T11:15:52.569Z,61.08
2023-05-03T11:18:19.414Z,61.01
2023-05-03T11:20:46.808Z,60.93
2023-05-03T11:23:13.623Z,60.82
2023-05-03T11:25:39.997Z,60.63
2023-05-03T11:28:06.472Z,60.82
2023-05-03T11:30:34.123Z,61.14
2023-05-03T11:33:01.268Z,61.53
2023-05-03T11:35:30.833Z,61.76
2023-05-03T11:37:57.326Z,62.04
2023-05-03T11:40:23.718Z,62.59
2023-05-03T11:42:51.152Z,62.78
2023-05-03T11:45:20.306Z,63.14
2023-05-03T11:47:48.850Z,63.69
2023-05-03T11:50:15.406Z,64.14
2023-05-03T11:52:42.011Z,63.89
2023-05-03T11:55:08.723Z,64.04
2023-05-03T11:57:35.931Z,63.39
2023-05-03T12:00:11.732Z,62.76
2023-05-03T12:02:38.995Z,62.80
2023-05-03T12:05:06.466Z,62.19
2023-05-03T12:07:34.774Z,61.08
2023-05-03T12:10:17.016Z,60.79
2023-05-03T12:13:00.092Z,61.29
2023-05-03T12:15:30.050Z,60.66
2023-05-03T12:18:00.653Z,59.67
2023-05-03T12:23:08.743Z,60.09
2023-05-03T12:25:39.790Z,60.51
2023-05-03T12:28:20.209Z,60.13
2023-05-03T12:30:54.482Z,60.01
2023-05-03T12:33:23.428Z,59.70
2023-05-03T12:35:53.351Z,59.04
2023-05-03T12:38:23.552Z,59.56
2023-05-03T12:40:51.531Z,59.95
2023-05-03T12:43:18.058Z,59.33
2023-05-03T12:45:52.356Z,58.75
2023-05-03T12:48:25.223Z,58.13
2023-05-03T12:50:52.292Z,58.76
2023-05-03T12:53:19.178Z,57.94
2023-05-03T12:55:51.056Z,57.93
2023-05-03T13:01:22.066Z,57.54
2023-05-03T13:03:44.485Z,57.88
2023-05-03T13:06:18.031Z,57.80
2023-05-03T13:08:50.058Z,57.71
2023-05-03T13:11:17.209Z,58.23
2023-05-03T13:13:43.748Z,58.35
2023-05-03T13:16:10.357Z,57.38
2023-05-03T13:18:36.843Z,57.86
2023-05-03T13:21:03.319Z,58.02
2023-05-03T13:23:30.030Z,58.05
2023-05-03T13:25:56.477Z,57.91
2023-05-03T13:28:22.896Z,57.33
2023-05-03T13:30:49.290Z,56.26
2023-05-03T13:33:15.727Z,55.83
2023-05-03T13:35:42.211Z,56.23
2023-05-03T13:38:08.708Z,56.23
2023-05-03T13:40:34.997Z,55.73
2023-05-03T13:43:01.557Z,55.32
2023-05-03T13:45:28.124Z,54.56
2023-05-03T13:48:13.306Z,54.13
2023-05-03T13:50:41.260Z,53.95
2023-05-03T13:53:07.735Z,54.23
2023-05-03T13:55:34.102Z,54.28
2023-05-03T13:58:00.761Z,54.39
2023-05-03T14:00:27.119Z,54.53
2023-05-03T14:02:56.842Z,54.34
2023-05-03T14:05:23.535Z,54.51
2023-05-03T14:07:49.946Z,54.27
2023-05-03T14:10:16.383Z,53.30
2023-05-03T14:12:43.023Z,53.49
2023-05-03T14:15:10.235Z,53.82
2023-05-03T14:17:39.579Z,53.34
2023-05-03T14:20:07.168Z,52.81
2023-05-03T14:22:34.392Z,52.92
2023-05-03T14:25:01.375Z,52.70
2023-05-03T14:27:27.869Z,52.63
2023-05-03T14:29:55.323Z,52.41
2023-05-03T14:32:23.193Z,52.20
2023-05-03T14:34:49.675Z,52.54
2023-05-03T14:37:16.155Z,52.47
2023-05-03T14:39:42.517Z,52.62
2023-05-03T14:42:12.178Z,52.76
2023-05-03T14:44:38.690Z,52.30
2023-05-03T14:47:05.142Z,52.73
2023-05-03T14:49:31.796Z,52.91
2023-05-03T14:51:58.130Z,53.20
2023-05-03T14:54:27.886Z,53.55
2023-05-03T14:56:54.435Z,53.17
2023-05-03T14:59:21.007Z,53.45
2023-05-03T15:01:47.518Z,53.63
2023-05-03T15:04:14.148Z,53.98
2023-05-03T15:06:40.515Z,54.35
2023-05-03T15:09:06.969Z,54.79
2023-05-03T15:11:33.884Z,54.30
2023-05-03T15:14:00.376Z,54.81
2023-05-03T15:16:26.902Z,55.41
2023-05-03T15:18:53.423Z,55.43
2023-05-03T15:21:19.899Z,55.62
2023-05-03T15:23:46.595Z,55.56
2023-05-03T15:26:18.602Z,55.81
2023-05-03T15:28:45.372Z,55.79
2023-05-03T15:31:12.474Z,56.09
2023-05-03T15:33:39.758Z,56.18
2023-05-03T15:36:15.248Z,56.15
2023-05-03T15:38:41.723Z,56.23
2023-05-03T15:41:08.317Z,56.42
2023-05-03T15:43:34.683Z,56.31
2023-05-03T15:46:01.520Z,56.53
2023-05-03T15:48:28.092Z,56.32
2023-05-03T15:50:54.535Z,56.21
2023-05-03T15:53:21.021Z,55.83
2023-05-03T15:55:47.503Z,55.93
2023-05-03T15:58:16.434Z,56.26
2023-05-03T16:00:45.352Z,56.53
2023-05-03T16:03:17.821Z,56.76
2023-05-03T16:05:44.250Z,57.02
2023-05-03T16:08:10.796Z,56.37
2023-05-03T16:10:42.087Z,54.98
2023-05-03T16:13:08.492Z,55.15
2023-05-03T16:15:34.993Z,54.37
2023-05-03T16:18:03.380Z,54.55
2023-05-03T16:20:30.057Z,54.89
2023-05-03T16:23:08.305Z,55.48
2023-05-03T16:25:42.650Z,56.00
2023-05-03T16:28:15.018Z,56.23
2023-05-03T16:30:41.725Z,56.41
2023-05-03T16:33:08.340Z,56.89
2023-05-03T16:35:35.008Z,57.13
2023-05-03T16:38:01.401Z,57.56
2023-05-03T16:40:27.851Z,57.77
2023-05-03T16:42:54.246Z,58.25
2023-05-03T16:45:20.662Z,58.27
2023-05-03T16:47:47.187Z,58.35
2023-05-03T16:50:13.904Z,58.44
2023-05-03T16:52:41.343Z,58.64
2023-05-03T16:55:08.994Z,58.49
2023-05-03T16:57:36.147Z,58.67
2023-05-03T17:00:04.913Z,58.98
2023-05-03T17:02:31.784Z,59.12
2023-05-03T17:04:58.608Z,59.34
2023-05-03T17:07:25.184Z,59.68
2023-05-03T17:09:51.587Z,59.91
2023-05-03T17:12:18.198Z,59.88
2023-05-03T17:14:44.973Z,60.13
2023-05-03T17:17:11.349Z,60.37
2023-05-03T17:19:38.010Z,60.39
2023-05-03T17:22:04.680Z,60.29
2023-05-03T17:24:31.073Z,60.14
2023-05-03T17:26:57.838Z,60.11
2023-05-03T17:29:24.770Z,60.36
2023-05-03T17:31:52.055Z,60.45
2023-05-03T17:34:18.723Z,60.32
2023-05-03T17:36:45.534Z,60.29
2023-05-03T17:39:11.878Z,60.49
2023-05-03T17:41:38.567Z,60.45
2023-05-03T17:44:05.084Z,60.70
2023-05-03T17:46:33.093Z,60.49
2023-05-03T17:49:01.522Z,60.80
2023-05-03T17:51:30.051Z,60.79
2023-05-03T17:53:56.365Z,60.87
2023-05-03T17:56:22.990Z,61.21
2023-05-03T17:58:49.466Z,61.70
2023-05-03T18:01:16.173Z,61.75
2023-05-03T18:03:42.867Z,61.48
2023-05-03T18:06:10.559Z,61.48
2023-05-03T18:08:37.022Z,61.32
2023-05-03T18:11:03.745Z,61.34
2023-05-03T18:13:30.627Z,61.48
2023-05-03T18:15:57.375Z,61.66
2023-05-03T18:18:23.945Z,61.85
2023-05-03T18:21:00.319Z,62.04
2023-05-03T18:23:27.106Z,62.53
2023-05-03T18:25:53.594Z,62.51
2023-05-03T18:28:20.179Z,62.65
2023-05-03T18:30:47.071Z,62.94
2023-05-03T18:33:13.654Z,63.00
2023-05-03T18:35:40.203Z,63.10
2023-05-03T18:38:06.785Z,63.40
2023-05-03T18:40:33.134Z,63.37
2023-05-03T18:42:59.515Z,63.79
2023-05-03T18:45:26.338Z,63.86
2023-05-03T18:47:52.712Z,63.68
2023-05-03T18:50:19.125Z,63.53
2023-05-03T18:52:46.448Z,64.00
2023-05-03T18:55:12.836Z,63.81
2023-05-03T18:57:39.234Z,64.28
2023-05-03T19:00:06.851Z,64.20
2023-05-03T19:02:33.263Z,64.50
2023-05-03T19:04:59.922Z,64.58
2023-05-03T19:07:30.196Z,64.60
2023-05-03T19:09:56.847Z,64.98
2023-05-03T19:12:23.512Z,65.16
2023-05-03T19:14:50.012Z,64.98
2023-05-03T19:17:16.503Z,65.28
2023-05-03T19:19:42.893Z,65.39
2023-05-03T19:22:10.453Z,65.67
2023-05-03T19:24:37.030Z,65.93
2023-05-03T19:27:03.706Z,66.62
2023-05-03T19:29:30.396Z,66.65
2023-05-03T19:31:56.963Z,66.53
2023-05-03T19:34:24.052Z,66.63
2023-05-03T19:36:50.595Z,66.96
2023-05-03T19:39:17.093Z,67.16
2023-05-03T19:41:45.971Z,67.22
2023-05-03T19:44:12.847Z,67.13
2023-05-03T19:46:39.371Z,67.13
2023-05-03T19:49:06.487Z,67.58
2023-05-03T19:51:32.939Z,67.59
2023-05-03T19:54:02.504Z,67.90
2023-05-03T19:56:28.981Z,68.13
2023-05-03T19:58:55.442Z,68.23
2023-05-03T20:01:22.084Z,68.20
2023-05-03T20:03:48.603Z,68.47
2023-05-03T20:06:15.150Z,68.77
2023-05-03T20:08:41.486Z,68.74
2023-05-03T20:11:08.206Z,68.99
2023-05-03T20:13:34.752Z,69.33
2023-05-03T20:16:01.682Z,69.12
2023-05-03T20:18:28.680Z,69.13
2023-05-03T20:20:56.993Z,69.11
2023-05-03T20:23:24.283Z,69.30
2023-05-03T20:25:51.463Z,69.40
2023-05-03T20:28:19.361Z,69.40
2023-05-03T20:30:48.987Z,69.64
2023-05-03T20:33:15.619Z,69.59
2023-05-03T20:35:42.742Z,69.94
2023-05-03T20:38:09.233Z,69.93
2023-05-03T20:40:35.737Z,70.05
2023-05-03T20:43:05.644Z,70.22
2023-05-03T20:45:32.077Z,70.28
2023-05-03T20:47:58.761Z,70.30
2023-05-03T20:50:25.523Z,70.42
2023-05-03T20:52:51.929Z,70.69
2023-05-03T20:55:18.375Z,70.76
2023-05-03T20:57:45.206Z,70.83
2023-05-03T21:00:11.806Z,70.87
2023-05-03T21:02:38.215Z,71.01
2023-05-03T21:05:06.037Z,71.02
2023-05-03T21:07:32.509Z,71.10
2023-05-03T21:09:59.025Z,71.08
2023-05-03T21:12:25.432Z,71.14
2023-05-03T21:14:52.016Z,71.23
2023-05-03T21:17:18.517Z,71.37
2023-05-03T21:19:45.017Z,71.49
2023-05-03T21:22:11.345Z,71.43
2023-05-03T21:24:40.101Z,71.33
2023-05-03T21:27:06.635Z,71.39
2023-05-03T21:29:32.975Z,71.52
2023-05-03T21:31:59.670Z,71.68
2023-05-03T21:34:26.380Z,72.06
2023-05-03T21:36:52.747Z,72.01
2023-05-03T21:39:19.079Z,72.29
2023-05-03T21:41:45.984Z,72.49
2023-05-03T21:44:12.428Z,72.53
2023-05-03T21:46:41.988Z,72.63
2023-05-03T21:49:08.390Z,72.72
2023-05-03T21:51:34.757Z,72.80
2023-05-03T21:54:01.079Z,72.93
2023-05-03T21:56:27.417Z,72.78
2023-05-03T21:58:53.780Z,72.71
2023-05-03T22:01:20.326Z,72.72
2023-05-03T22:03:47.641Z,72.75
2023-05-03T22:06:14.265Z,72.90
2023-05-03T22:08:40.616Z,72.94
2023-05-03T22:11:06.929Z,72.84
2023-05-03T22:13:33.424Z,72.95
2023-05-03T22:16:04.296Z,72.94
2023-05-03T22:18:30.920Z,72.82
2023-05-03T22:20:57.250Z,73.00
2023-05-03T22:23:23.581Z,72.96
2023-05-03T22:25:49.942Z,72.94
2023-05-03T22:28:16.252Z,72.85
2023-05-03T22:30:42.620Z,72.82
2023-05-03T22:33:09.090Z,72.88
2023-05-03T22:35:35.500Z,73.02
2023-05-03T22:38:01.801Z,73.31
2023-05-03T22:40:28.126Z,73.55
2023-05-03T22:42:57.619Z,73.65
2023-05-03T22:45:23.906Z,73.53
2023-05-03T22:47:50.285Z,73.76
2023-05-03T22:50:16.697Z,73.76
2023-05-03T22:52:43.026Z,73.88
2023-05-03T22:55:09.551Z,73.95
2023-05-03T22:57:35.859Z,74.06
2023-05-03T23:00:02.587Z,74.10
2023-05-03T23:02:29.156Z,74.08
2023-05-03T23:04:55.911Z,74.06
2023-05-03T23:07:22.277Z,74.11
2023-05-03T23:09:48.619Z,74.15
2023-05-03T23:12:15.103Z,73.94
2023-05-03T23:14:41.408Z,74.05
2023-05-03T23:17:07.706Z,74.07
2023-05-03T23:19:34.074Z,73.95
2023-05-03T23:22:00.526Z,74.11
2023-05-03T23:24:26.929Z,73.97
2023-05-03T23:26:53.227Z,73.96
2023-05-03T23:29:19.864Z,73.77
2023-05-03T23:31:46.853Z,73.99
2023-05-03T23:34:13.813Z,74.02
2023-05-03T23:36:40.147Z,74.13
2023-05-03T23:39:06.462Z,73.99
2023-05-03T23:41:32.824Z,74.14
2023-05-03T23:43:59.324Z,73.99
2023-05-03T23:46:25.652Z,74.23
2023-05-03T23:48:51.932Z,74.25
2023-05-03T23:51:18.240Z,74.44
2023-05-03T23:53:44.690Z,74.39
2023-05-03T23:56:11.081Z,74.64
2023-05-03T23:58:37.359Z,74.76
